createdAt,value
2023-05-03T00:00:13.305Z,10.44
2023-05-03T00:01:08.999Z,10.42
2023-05-03T00:01:40.867Z,10.41
2023-05-03T00:02:13.724Z,10.42
2023-05-03T00:02:46.022Z,10.43
2023-05-03T00:03:22.254Z,10.43
2023-05-03T00:03:54.262Z,10.44
2023-05-03T00:04:26.304Z,10.45
2023-05-03T00:04:59.080Z,10.44
2023-05-03T00:05:31.429Z,10.44
2023-05-03T00:06:13.665Z,10.45
2023-05-03T00:06:45.743Z,10.44
2023-05-03T00:07:17.910Z,10.44
2023-05-03T00:07:49.885Z,10.44
2023-05-03T00:08:21.931Z,10.45
2023-05-03T00:08:53.852Z,10.43
2023-05-03T00:09:25.922Z,10.44
2023-05-03T00:10:00.826Z,10.44
2023-05-03T00:10:36.647Z,10.42
2023-05-03T00:11:12.358Z,10.42
2023-05-03T00:11:44.463Z,10.40
2023-05-03T00:12:16.559Z,10.42
2023-05-03T00:12:48.438Z,10.42
2023-05-03T00:13:21.764Z,10.43
2023-05-03T00:13:53.565Z,10.44
2023-05-03T00:14:25.607Z,10.43
2023-05-03T00:14:57.671Z,10.45
2023-05-03T00:15:29.771Z,10.46
2023-05-03T00:16:01.765Z,10.46
2023-05-03T00:16:33.933Z,10.46
2023-05-03T00:17:08.289Z,10.46
2023-05-03T00:17:40.548Z,10.47
2023-05-03T00:18:12.702Z,10.47
2023-05-03T00:18:45.033Z,10.46
2023-05-03T00:19:30.637Z,10.47
2023-05-03T00:20:04.298Z,10.46
2023-05-03T00:20:36.964Z,10.45
2023-05-03T00:21:08.893Z,10.46
2023-05-03T00:21:41.146Z,10.46
2023-05-03T00:22:12.986Z,10.47
2023-05-03T00:22:44.836Z,10.48
2023-05-03T00:23:16.823Z,10.49
2023-05-03T00:23:48.714Z,10.49
2023-05-03T00:24:20.661Z,10.49
2023-05-03T00:24:52.759Z,10.49
2023-05-03T00:25:24.695Z,10.50
2023-05-03T00:25:58.728Z,10.50
2023-05-03T00:26:30.737Z,10.49
2023-05-03T00:27:06.251Z,10.47
2023-05-03T00:27:38.387Z,10.49
2023-05-03T00:28:10.289Z,10.49
2023-05-03T00:28:42.240Z,10.50
2023-05-03T00:29:14.476Z,10.48
2023-05-03T00:29:46.324Z,10.49
2023-05-03T00:30:18.897Z,10.50
2023-05-03T00:30:51.978Z,10.52
2023-05-03T00:31:23.987Z,10.52
2023-05-03T00:31:56.029Z,10.45
2023-05-03T00:32:28.405Z,10.41
2023-05-03T00:33:00.385Z,10.38
2023-05-03T00:33:32.360Z,10.32
2023-05-03T00:34:04.241Z,10.30
2023-05-03T00:34:37.271Z,10.25
2023-05-03T00:35:09.393Z,10.22
2023-05-03T00:35:41.606Z,10.17
2023-05-03T00:36:14.799Z,10.12
2023-05-03T00:36:46.746Z,10.12
2023-05-03T00:37:18.785Z,10.13
2023-05-03T00:37:50.647Z,10.13
2023-05-03T00:38:22.626Z,10.08
2023-05-03T00:38:54.608Z,10.03
2023-05-03T00:39:29.912Z,10.02
2023-05-03T00:40:02.095Z,10.01
2023-05-03T00:40:34.494Z,10.00
2023-05-03T00:41:07.369Z,10.00
2023-05-03T00:41:39.577Z,10.02
2023-05-03T00:42:11.648Z,10.02
2023-05-03T00:42:44.008Z,10.01
2023-05-03T00:43:15.996Z,10.02
2023-05-03T00:43:47.858Z,10.03
2023-05-03T00:44:19.827Z,10.04
2023-05-03T00:44:53.277Z,10.05
2023-05-03T00:45:26.243Z,10.06
2023-05-03T00:46:08.661Z,10.08
2023-05-03T00:46:44.968Z,10.08
2023-05-03T00:47:17.570Z,10.08
2023-05-03T00:47:49.742Z,10.10
2023-05-03T00:48:21.831Z,10.12
2023-05-03T00:48:54.051Z,10.12
2023-05-03T00:49:26.244Z,10.14
2023-05-03T00:50:00.040Z,10.15
2023-05-03T00:50:32.126Z,10.15
2023-05-03T00:51:06.466Z,10.15
2023-05-03T00:51:39.050Z,10.15
2023-05-03T00:52:11.362Z,10.15
2023-05-03T00:52:44.111Z,10.17
2023-05-03T00:53:16.665Z,10.15
2023-05-03T00:53:48.702Z,10.17
2023-05-03T00:54:21.329Z,10.17
2023-05-03T00:54:53.479Z,10.19
2023-05-03T00:55:29.024Z,10.19
2023-05-03T00:56:01.391Z,10.19
2023-05-03T00:56:47.816Z,10.19
2023-05-03T00:57:22.431Z,10.16
2023-05-03T00:57:54.391Z,10.16
2023-05-03T00:58:26.324Z,10.18
2023-05-03T00:58:58.935Z,10.19
2023-05-03T00:59:32.228Z,10.20
2023-05-03T01:00:04.725Z,10.19
2023-05-03T01:00:37.132Z,10.19
2023-05-03T01:01:09.325Z,10.20
2023-05-03T01:01:41.320Z,10.21
2023-05-03T01:02:14.275Z,10.21
2023-05-03T01:02:46.336Z,10.21
2023-05-03T01:03:18.329Z,10.21
2023-05-03T01:03:50.548Z,10.22
2023-05-03T01:04:23.224Z,10.22
2023-05-03T01:04:56.292Z,10.23
2023-05-03T01:05:38.866Z,10.23
2023-05-03T01:06:20.571Z,10.23
2023-05-03T01:07:11.114Z,10.20
2023-05-03T01:08:11.142Z,10.20
2023-05-03T01:09:03.282Z,10.15
2023-05-03T01:09:51.851Z,10.14
2023-05-03T01:10:44.637Z,10.11
2023-05-03T01:11:26.867Z,10.12
2023-05-03T01:12:30.124Z,10.11
2023-05-03T01:13:14.579Z,10.08
2023-05-03T01:14:18.572Z,10.06
2023-05-03T01:15:08.453Z,10.04
2023-05-03T01:15:58.145Z,10.02
2023-05-03T01:16:49.364Z,10.00
2023-05-03T01:17:25.189Z,9.98
2023-05-03T01:18:10.186Z,9.94
2023-05-03T01:18:48.574Z,9.94
2023-05-03T01:19:34.654Z,9.95
2023-05-03T01:20:10.801Z,9.93
2023-05-03T01:20:46.815Z,9.93
2023-05-03T01:21:20.843Z,9.92
2023-05-03T01:22:09.580Z,9.92
2023-05-03T01:22:55.908Z,9.93
2023-05-03T01:23:44.504Z,9.92
2023-05-03T01:24:21.692Z,9.89
2023-05-03T01:25:08.764Z,9.91
2023-05-03T01:25:41.233Z,9.90
2023-05-03T01:26:20.186Z,9.90
2023-05-03T01:26:52.031Z,9.92
2023-05-03T01:27:23.972Z,9.92
2023-05-03T01:27:56.111Z,9.94
2023-05-03T01:28:28.381Z,9.96
2023-05-03T01:29:00.368Z,9.96
2023-05-03T01:29:32.341Z,9.98
2023-05-03T01:30:07.066Z,9.99
2023-05-03T01:30:40.100Z,10.00
2023-05-03T01:31:22.569Z,10.02
2023-05-03T01:32:01.415Z,10.02
2023-05-03T01:33:04.497Z,10.02
2023-05-03T01:33:50.031Z,10.00
2023-05-03T01:34:28.883Z,9.99
2023-05-03T01:35:06.425Z,9.98
2023-05-03T01:35:50.973Z,9.97
2023-05-03T01:36:32.696Z,10.01
2023-05-03T01:37:10.528Z,10.01
2023-05-03T01:37:44.328Z,10.01
2023-05-03T01:38:18.843Z,10.01
2023-05-03T01:38:52.159Z,10.03
2023-05-03T01:39:37.540Z,10.04
2023-05-03T01:40:13.200Z,10.03
2023-05-03T01:40:52.813Z,10.00
2023-05-03T01:41:28.336Z,10.02
2023-05-03T01:42:04.129Z,10.04
2023-05-03T01:42:38.831Z,10.02
2023-05-03T01:43:16.198Z,10.04
2023-05-03T01:43:51.997Z,10.05
2023-05-03T01:44:26.076Z,10.03
2023-05-03T01:45:00.967Z,10.02
2023-05-03T01:45:34.949Z,10.02
2023-05-03T01:46:08.693Z,10.02
2023-05-03T01:46:44.224Z,10.03
2023-05-03T01:47:17.918Z,10.03
2023-05-03T01:47:51.180Z,10.03
2023-05-03T01:48:24.611Z,10.03
2023-05-03T01:48:58.169Z,10.02
2023-05-03T01:50:44.739Z,9.99
2023-05-03T01:51:18.046Z,9.94
2023-05-03T01:51:51.530Z,9.94
2023-05-03T01:52:25.018Z,9.95
2023-05-03T01:52:58.413Z,9.95
2023-05-03T01:53:31.691Z,9.96
2023-05-03T01:54:05.293Z,9.97
2023-05-03T01:54:38.657Z,9.97
2023-05-03T01:55:12.010Z,10.00
2023-05-03T01:55:45.318Z,9.99
2023-05-03T01:56:18.648Z,9.99
2023-05-03T01:56:52.031Z,9.99
2023-05-03T01:57:25.334Z,10.00
2023-05-03T01:57:58.802Z,10.00
2023-05-03T01:58:32.337Z,10.01
2023-05-03T01:59:05.660Z,10.01
2023-05-03T01:59:38.879Z,10.02
2023-05-03T02:00:12.716Z,10.03
2023-05-03T02:00:46.825Z,10.03
2023-05-03T02:01:20.081Z,10.03
2023-05-03T02:01:53.476Z,10.03
2023-05-03T02:02:26.707Z,10.06
2023-05-03T02:02:59.981Z,10.03
2023-05-03T02:03:33.128Z,10.05
2023-05-03T02:04:06.308Z,10.05
2023-05-03T02:04:39.636Z,10.04
2023-05-03T02:05:12.943Z,10.04
2023-05-03T02:05:46.357Z,10.04
2023-05-03T02:06:19.666Z,10.04
2023-05-03T02:06:55.070Z,10.05
2023-05-03T02:07:28.410Z,10.06
2023-05-03T02:08:01.672Z,10.05
2023-05-03T02:08:35.069Z,10.07
2023-05-03T02:09:08.814Z,10.07
2023-05-03T02:09:42.079Z,10.08
2023-05-03T02:10:16.542Z,10.07
2023-05-03T02:10:49.748Z,10.07
2023-05-03T02:11:23.028Z,10.04
2023-05-03T02:11:56.403Z,10.08
2023-05-03T02:12:29.698Z,10.06
2023-05-03T02:13:03.953Z,10.08
2023-05-03T02:13:38.868Z,10.10
2023-05-03T02:14:12.693Z,10.11
2023-05-03T02:14:46.022Z,10.10
2023-05-03T02:15:20.429Z,10.10
2023-05-03T02:15:54.076Z,10.15
2023-05-03T02:16:27.841Z,10.10
2023-05-03T02:17:03.357Z,10.08
2023-05-03T02:17:41.227Z,10.06
2023-05-03T02:18:16.599Z,10.05
2023-05-03T02:18:49.921Z,10.03
2023-05-03T02:19:23.137Z,10.04
2023-05-03T02:19:56.504Z,10.06
2023-05-03T02:20:32.714Z,10.05
2023-05-03T02:21:06.873Z,10.05
2023-05-03T02:21:40.204Z,10.06
2023-05-03T02:22:13.440Z,10.05
2023-05-03T02:22:46.714Z,10.07
2023-05-03T02:23:20.003Z,10.06
2023-05-03T02:23:54.473Z,10.04
2023-05-03T02:24:29.774Z,10.03
2023-05-03T02:25:03.043Z,10.02
2023-05-03T02:25:36.576Z,10.00
2023-05-03T02:26:09.862Z,10.00
2023-05-03T02:26:43.064Z,9.98
2023-05-03T02:27:19.854Z,10.00
2023-05-03T02:27:53.114Z,9.99
2023-05-03T02:28:27.004Z,9.99
2023-05-03T02:29:00.257Z,9.97
2023-05-03T02:29:34.029Z,9.99
2023-05-03T02:30:08.143Z,9.97
2023-05-03T02:30:44.436Z,9.95
2023-05-03T02:31:17.908Z,9.95
2023-05-03T02:31:51.461Z,9.96
2023-05-03T02:32:25.770Z,9.95
2023-05-03T02:32:59.017Z,9.94
2023-05-03T02:33:32.386Z,9.95
2023-05-03T02:34:05.607Z,9.95
2023-05-03T02:34:39.422Z,9.93
2023-05-03T02:35:13.298Z,9.94
2023-05-03T02:35:46.661Z,9.94
2023-05-03T02:36:19.871Z,9.95
2023-05-03T02:36:53.970Z,9.92
2023-05-03T02:37:27.460Z,9.93
2023-05-03T02:38:00.896Z,9.94
2023-05-03T02:38:34.279Z,9.93
2023-05-03T02:39:07.481Z,9.92
2023-05-03T02:39:40.774Z,9.96
2023-05-03T02:40:15.371Z,9.96
2023-05-03T02:40:48.734Z,9.93
2023-05-03T02:41:21.975Z,9.98
2023-05-03T02:41:55.709Z,10.00
2023-05-03T02:42:28.788Z,9.93
2023-05-03T02:43:02.732Z,9.92
2023-05-03T02:43:36.277Z,9.90
2023-05-03T02:44:09.632Z,9.90
2023-05-03T02:44:42.943Z,9.90
2023-05-03T02:45:16.373Z,9.90
2023-05-03T02:45:49.706Z,9.89
2023-05-03T02:46:23.157Z,9.88
2023-05-03T02:46:56.789Z,9.89
2023-05-03T02:47:31.031Z,9.89
2023-05-03T02:48:04.668Z,9.90
2023-05-03T02:48:38.186Z,9.88
2023-05-03T02:49:11.674Z,9.88
2023-05-03T02:49:45.026Z,9.87
2023-05-03T02:50:18.762Z,9.89
2023-05-03T02:50:52.250Z,9.91
2023-05-03T02:51:25.742Z,9.88
2023-05-03T02:51:59.418Z,9.87
2023-05-03T02:52:32.733Z,9.87
2023-05-03T02:53:06.104Z,9.87
2023-05-03T02:53:40.072Z,9.85
2023-05-03T02:54:13.374Z,9.86
2023-05-03T02:54:47.421Z,9.88
2023-05-03T02:55:21.106Z,9.88
2023-05-03T02:55:54.748Z,9.90
2023-05-03T02:56:28.690Z,9.90
2023-05-03T02:57:02.360Z,9.90
2023-05-03T02:57:36.266Z,9.88
2023-05-03T02:58:10.314Z,9.89
2023-05-03T02:58:43.904Z,9.87
2023-05-03T02:59:17.278Z,9.87
2023-05-03T02:59:50.586Z,9.90
2023-05-03T03:00:23.859Z,9.90
2023-05-03T03:00:57.248Z,9.87
2023-05-03T03:01:34.262Z,9.85
2023-05-03T03:02:07.980Z,9.84
2023-05-03T03:02:41.604Z,9.84
2023-05-03T03:03:15.014Z,9.81
2023-05-03T03:03:49.143Z,9.81
2023-05-03T03:04:22.574Z,9.79
2023-05-03T03:04:56.397Z,9.78
2023-05-03T03:05:30.085Z,9.77
2023-05-03T03:06:03.495Z,9.81
2023-05-03T03:06:36.845Z,9.78
2023-05-03T03:07:10.343Z,9.76
2023-05-03T03:07:43.948Z,9.78
2023-05-03T03:08:18.635Z,9.75
2023-05-03T03:08:52.067Z,9.74
2023-05-03T03:09:25.892Z,9.78
2023-05-03T03:09:59.369Z,9.75
2023-05-03T03:10:33.250Z,9.75
2023-05-03T03:11:07.470Z,9.76
2023-05-03T03:11:41.457Z,9.77
2023-05-03T03:12:15.003Z,9.77
2023-05-03T03:12:48.336Z,9.76
2023-05-03T03:13:28.651Z,9.73
2023-05-03T03:14:01.961Z,9.74
2023-05-03T03:14:37.184Z,9.74
2023-05-03T03:15:11.068Z,9.74
2023-05-03T03:15:44.520Z,9.74
2023-05-03T03:16:17.863Z,9.75
2023-05-03T03:16:52.352Z,9.76
2023-05-03T03:17:26.386Z,9.78
2023-05-03T03:18:00.434Z,9.79
2023-05-03T03:18:34.651Z,9.80
2023-05-03T03:19:08.749Z,9.82
2023-05-03T03:19:41.965Z,9.81
2023-05-03T03:20:16.159Z,9.82
2023-05-03T03:20:50.595Z,9.86
2023-05-03T03:21:24.705Z,9.88
2023-05-03T03:21:57.930Z,9.85
2023-05-03T03:22:32.002Z,9.81
2023-05-03T03:23:05.331Z,9.81
2023-05-03T03:23:38.708Z,9.79
2023-05-03T03:24:11.983Z,9.78
2023-05-03T03:24:46.109Z,9.79
2023-05-03T03:25:20.972Z,9.80
2023-05-03T03:25:54.415Z,9.85
2023-05-03T03:26:27.723Z,9.81
2023-05-03T03:27:00.972Z,9.77
2023-05-03T03:27:34.362Z,9.76
2023-05-03T03:28:08.430Z,9.75
2023-05-03T03:28:41.848Z,9.74
2023-05-03T03:29:15.315Z,9.73
2023-05-03T03:29:48.764Z,9.74
2023-05-03T03:30:21.972Z,9.76
2023-05-03T03:31:01.786Z,9.74
2023-05-03T03:31:35.216Z,9.73
2023-05-03T03:32:08.970Z,9.71
2023-05-03T03:32:42.246Z,9.74
2023-05-03T03:33:16.361Z,9.72
2023-05-03T03:33:49.822Z,9.71
2023-05-03T03:34:23.261Z,9.70
2023-05-03T03:34:56.784Z,9.71
2023-05-03T03:35:31.338Z,9.70
2023-05-03T03:36:07.904Z,9.70
2023-05-03T03:36:41.187Z,9.69
2023-05-03T03:37:14.884Z,9.69
2023-05-03T03:37:51.184Z,9.67
2023-05-03T03:38:24.513Z,9.69
2023-05-03T03:39:00.989Z,9.68
2023-05-03T03:39:34.770Z,9.66
2023-05-03T03:40:08.950Z,9.68
2023-05-03T03:40:42.450Z,9.68
2023-05-03T03:41:15.654Z,9.70
2023-05-03T03:41:49.089Z,9.69
2023-05-03T03:42:24.225Z,9.70
2023-05-03T03:42:58.398Z,9.70
2023-05-03T03:43:31.766Z,9.70
2023-05-03T03:44:05.579Z,9.70
2023-05-03T03:44:39.063Z,9.69
2023-05-03T03:45:13.692Z,9.69
2023-05-03T03:45:47.208Z,9.69
2023-05-03T03:46:20.570Z,9.68
2023-05-03T03:46:54.008Z,9.68
2023-05-03T03:47:27.443Z,9.69
2023-05-03T03:48:01.480Z,9.68
2023-05-03T03:48:34.892Z,9.66
2023-05-03T03:49:08.359Z,9.66
2023-05-03T03:49:42.318Z,9.63
2023-05-03T03:50:16.722Z,9.63
2023-05-03T03:50:50.324Z,9.62
2023-05-03T03:51:23.956Z,9.63
2023-05-03T03:51:57.244Z,9.61
2023-05-03T03:52:30.872Z,9.59
2023-05-03T03:53:04.614Z,9.59
2023-05-03T03:53:37.997Z,9.59
2023-05-03T03:54:11.357Z,9.59
2023-05-03T03:54:46.581Z,9.56
2023-05-03T03:55:20.201Z,9.55
2023-05-03T03:55:53.612Z,9.54
2023-05-03T03:56:27.336Z,9.54
2023-05-03T03:57:03.007Z,9.55
2023-05-03T03:57:37.312Z,9.54
2023-05-03T03:58:11.116Z,9.52
2023-05-03T03:58:44.703Z,9.52
2023-05-03T03:59:18.290Z,9.51
2023-05-03T04:00:26.537Z,9.52
2023-05-03T04:01:04.634Z,9.52
2023-05-03T04:01:37.986Z,9.52
2023-05-03T04:02:11.948Z,9.50
2023-05-03T04:02:47.103Z,9.47
2023-05-03T04:03:23.187Z,9.47
2023-05-03T04:03:56.632Z,9.47
2023-05-03T04:04:32.083Z,9.47
2023-05-03T04:05:06.837Z,9.46
2023-05-03T04:05:41.071Z,9.46
2023-05-03T04:06:14.830Z,9.44
2023-05-03T04:06:48.342Z,9.47
2023-05-03T04:07:22.011Z,9.46
2023-05-03T04:07:55.778Z,9.46
2023-05-03T04:08:31.673Z,9.49
2023-05-03T04:09:05.460Z,9.49
2023-05-03T04:09:39.910Z,9.48
2023-05-03T04:10:13.225Z,9.52
2023-05-03T04:10:46.793Z,9.49
2023-05-03T04:11:21.706Z,9.48
2023-05-03T04:11:59.182Z,9.46
2023-05-03T04:12:34.207Z,9.45
2023-05-03T04:13:07.796Z,9.45
2023-05-03T04:13:41.968Z,9.46
2023-05-03T04:14:15.273Z,9.45
2023-05-03T04:14:48.875Z,9.45
2023-05-03T04:15:22.301Z,9.45
2023-05-03T04:15:57.150Z,9.44
2023-05-03T04:16:31.056Z,9.45
2023-05-03T04:17:06.881Z,9.45
2023-05-03T04:17:40.715Z,9.45
2023-05-03T04:18:15.323Z,9.45
2023-05-03T04:18:48.713Z,9.47
2023-05-03T04:19:26.260Z,9.48
2023-05-03T04:19:59.885Z,9.46
2023-05-03T04:20:36.999Z,9.46
2023-05-03T04:21:11.262Z,9.44
2023-05-03T04:21:45.227Z,9.42
2023-05-03T04:22:18.803Z,9.42
2023-05-03T04:22:52.170Z,9.40
2023-05-03T04:23:27.287Z,9.39
2023-05-03T04:24:02.227Z,9.38
2023-05-03T04:24:35.985Z,9.44
2023-05-03T04:25:14.190Z,9.43
2023-05-03T04:25:48.883Z,9.41
2023-05-03T04:26:31.676Z,9.39
2023-05-03T04:27:10.164Z,9.35
2023-05-03T04:27:45.730Z,9.36
2023-05-03T04:28:20.758Z,9.33
2023-05-03T04:28:58.608Z,9.33
2023-05-03T04:29:32.832Z,9.32
2023-05-03T04:30:07.950Z,9.32
2023-05-03T04:30:47.510Z,9.28
2023-05-03T04:31:22.919Z,9.33
2023-05-03T04:32:01.477Z,9.35
2023-05-03T04:32:37.625Z,9.32
2023-05-03T04:33:14.207Z,9.30
2023-05-03T04:33:50.598Z,9.28
2023-05-03T04:34:25.277Z,9.27
2023-05-03T04:35:00.459Z,9.28
2023-05-03T04:35:34.729Z,9.29
2023-05-03T04:36:10.937Z,9.30
2023-05-03T04:36:46.765Z,9.32
2023-05-03T04:37:23.462Z,9.31
2023-05-03T04:37:57.685Z,9.31
2023-05-03T04:38:32.822Z,9.32
2023-05-03T04:39:10.572Z,9.32
2023-05-03T04:39:45.737Z,9.25
2023-05-03T04:40:20.148Z,9.35
2023-05-03T04:40:58.694Z,9.35
2023-05-03T04:41:32.661Z,9.34
2023-05-03T04:42:09.293Z,9.38
2023-05-03T04:42:43.213Z,9.36
2023-05-03T04:43:17.389Z,9.37
2023-05-03T04:43:53.634Z,9.39
2023-05-03T04:44:27.119Z,9.38
2023-05-03T04:45:00.808Z,9.40
2023-05-03T04:45:34.797Z,9.41
2023-05-03T04:46:08.308Z,9.40
2023-05-03T04:46:42.341Z,9.40
2023-05-03T04:47:15.736Z,9.41
2023-05-03T04:47:49.657Z,9.41
2023-05-03T04:48:22.930Z,9.34
2023-05-03T04:48:56.653Z,9.43
2023-05-03T04:49:30.896Z,9.42
2023-05-03T04:50:04.849Z,9.42
2023-05-03T04:50:41.674Z,9.43
2023-05-03T04:51:20.418Z,9.41
2023-05-03T04:51:56.441Z,9.42
2023-05-03T04:52:30.802Z,9.41
2023-05-03T04:53:04.518Z,9.40
2023-05-03T04:53:38.791Z,9.40
2023-05-03T04:54:16.000Z,9.40
2023-05-03T04:54:49.979Z,9.42
2023-05-03T04:55:23.899Z,9.43
2023-05-03T04:55:58.572Z,9.43
2023-05-03T04:56:36.222Z,9.43
2023-05-03T04:57:19.198Z,9.43
2023-05-03T04:57:56.956Z,9.43
2023-05-03T04:58:32.036Z,9.47
2023-05-03T04:59:05.768Z,9.47
2023-05-03T04:59:39.743Z,9.46
2023-05-03T05:00:15.283Z,9.46
2023-05-03T05:00:57.970Z,9.45
2023-05-03T05:01:35.315Z,9.43
2023-05-03T05:02:11.730Z,9.41
2023-05-03T05:02:45.188Z,9.47
2023-05-03T05:03:19.007Z,9.46
2023-05-03T05:03:53.834Z,9.48
2023-05-03T05:04:29.156Z,9.46
2023-05-03T05:05:02.697Z,9.45
2023-05-03T05:05:36.195Z,9.46
2023-05-03T05:06:11.423Z,9.44
2023-05-03T05:06:45.861Z,9.45
2023-05-03T05:07:23.290Z,9.47
2023-05-03T05:07:56.794Z,9.47
2023-05-03T05:08:30.082Z,9.48
2023-05-03T05:09:07.710Z,9.48
2023-05-03T05:09:41.318Z,9.49
2023-05-03T05:10:14.972Z,9.50
2023-05-03T05:10:49.156Z,9.53
2023-05-03T05:11:27.502Z,9.55
2023-05-03T05:12:02.184Z,9.58
2023-05-03T05:12:40.093Z,9.54
2023-05-03T05:13:13.926Z,9.53
2023-05-03T05:13:48.332Z,9.53
2023-05-03T05:14:21.717Z,9.51
2023-05-03T05:14:55.501Z,9.54
2023-05-03T05:15:28.958Z,9.56
2023-05-03T05:16:02.717Z,9.55
2023-05-03T05:16:36.550Z,9.56
2023-05-03T05:17:10.399Z,9.56
2023-05-03T05:17:44.211Z,9.58
2023-05-03T05:18:18.039Z,9.58
2023-05-03T05:18:51.666Z,9.58
2023-05-03T05:19:25.416Z,9.59
2023-05-03T05:19:58.967Z,9.60
2023-05-03T05:20:33.355Z,9.61
2023-05-03T05:21:07.513Z,9.61
2023-05-03T05:21:41.340Z,9.60
2023-05-03T05:22:15.018Z,9.62
2023-05-03T05:22:51.982Z,9.64
2023-05-03T05:23:25.365Z,9.61
2023-05-03T05:23:58.686Z,9.63
2023-05-03T05:24:32.317Z,9.66
2023-05-03T05:25:07.598Z,9.67
2023-05-03T05:25:41.162Z,9.63
2023-05-03T05:26:14.473Z,9.63
2023-05-03T05:26:49.260Z,9.64
2023-05-03T05:27:23.807Z,9.65
2023-05-03T05:27:58.187Z,9.65
2023-05-03T05:28:32.530Z,9.64
2023-05-03T05:29:06.496Z,9.64
2023-05-03T05:29:39.814Z,9.63
2023-05-03T05:30:13.443Z,9.67
2023-05-03T05:30:47.608Z,9.68
2023-05-03T05:31:21.302Z,9.66
2023-05-03T05:31:54.806Z,9.69
2023-05-03T05:32:28.487Z,9.68
2023-05-03T05:33:02.006Z,9.64
2023-05-03T05:33:35.622Z,9.63
2023-05-03T05:34:09.155Z,9.56
2023-05-03T05:34:45.190Z,9.55
2023-05-03T05:35:21.841Z,9.55
2023-05-03T05:35:55.368Z,9.53
2023-05-03T05:36:30.869Z,9.55
2023-05-03T05:37:05.875Z,9.56
2023-05-03T05:37:39.959Z,9.57
2023-05-03T05:38:13.483Z,9.60
2023-05-03T05:38:46.848Z,9.61
2023-05-03T05:39:21.351Z,9.62
2023-05-03T05:39:55.995Z,9.63
2023-05-03T05:40:31.219Z,9.68
2023-05-03T05:41:06.398Z,9.67
2023-05-03T05:41:40.015Z,9.66
2023-05-03T05:42:13.999Z,9.66
2023-05-03T05:42:48.876Z,9.67
2023-05-03T05:43:22.611Z,9.68
2023-05-03T05:43:56.425Z,9.68
2023-05-03T05:44:30.491Z,9.70
2023-05-03T05:45:04.284Z,9.69
2023-05-03T05:45:38.622Z,9.70
2023-05-03T05:46:12.037Z,9.71
2023-05-03T05:46:45.472Z,9.71
2023-05-03T05:47:19.078Z,9.72
2023-05-03T05:47:52.922Z,9.74
2023-05-03T05:48:26.540Z,9.70
2023-05-03T05:49:00.170Z,9.68
2023-05-03T05:49:33.886Z,9.69
2023-05-03T05:50:16.932Z,9.70
2023-05-03T05:50:51.698Z,9.66
2023-05-03T05:51:25.028Z,9.65
2023-05-03T05:51:58.640Z,9.66
2023-05-03T05:52:32.006Z,9.69
2023-05-03T05:53:05.571Z,9.71
2023-05-03T05:53:41.978Z,9.72
2023-05-03T05:54:16.512Z,9.76
2023-05-03T05:54:50.862Z,9.70
2023-05-03T05:55:24.240Z,9.72
2023-05-03T05:55:57.807Z,9.75
2023-05-03T05:56:31.805Z,9.76
2023-05-03T05:57:05.423Z,9.77
2023-05-03T05:57:38.853Z,9.75
2023-05-03T05:58:13.146Z,9.76
2023-05-03T05:58:52.974Z,9.76
2023-05-03T05:59:26.764Z,9.76
2023-05-03T06:00:00.515Z,9.78
2023-05-03T06:00:35.465Z,9.80
2023-05-03T06:01:09.375Z,9.80
2023-05-03T06:01:46.170Z,9.86
2023-05-03T06:02:25.046Z,9.85
2023-05-03T06:02:58.692Z,9.85
2023-05-03T06:03:34.520Z,9.87
2023-05-03T06:04:10.539Z,9.85
2023-05-03T06:04:44.969Z,9.86
2023-05-03T06:05:18.714Z,9.88
2023-05-03T06:05:52.266Z,9.90
2023-05-03T06:06:27.608Z,9.91
2023-05-03T06:07:01.062Z,9.94
2023-05-03T06:07:34.529Z,9.94
2023-05-03T06:08:08.618Z,9.97
2023-05-03T06:08:41.988Z,10.01
2023-05-03T06:09:24.072Z,9.97
2023-05-03T06:10:00.506Z,9.96
2023-05-03T06:10:34.130Z,9.97
2023-05-03T06:11:08.114Z,9.97
2023-05-03T06:11:43.359Z,9.99
2023-05-03T06:12:16.948Z,9.93
2023-05-03T06:12:51.209Z,9.91
2023-05-03T06:13:28.783Z,9.93
2023-05-03T06:14:09.798Z,9.95
2023-05-03T06:14:59.052Z,9.91
2023-05-03T06:15:40.800Z,9.86
2023-05-03T06:16:14.199Z,9.85
2023-05-03T06:16:47.791Z,9.85
2023-05-03T06:17:23.059Z,9.84
2023-05-03T06:17:56.379Z,9.85
2023-05-03T06:18:30.026Z,9.84
2023-05-03T06:19:05.179Z,9.85
2023-05-03T06:19:39.460Z,9.87
2023-05-03T06:20:13.120Z,9.87
2023-05-03T06:20:50.981Z,9.90
2023-05-03T06:21:24.924Z,9.92
2023-05-03T06:21:58.538Z,9.92
2023-05-03T06:22:32.892Z,9.92
2023-05-03T06:23:06.144Z,9.92
2023-05-03T06:23:40.378Z,9.90
2023-05-03T06:24:21.271Z,9.92
2023-05-03T06:24:58.251Z,9.83
2023-05-03T06:25:32.513Z,9.85
2023-05-03T06:26:08.254Z,9.84
2023-05-03T06:26:42.075Z,9.87
2023-05-03T06:27:15.552Z,9.88
2023-05-03T06:27:49.224Z,9.90
2023-05-03T06:28:24.118Z,9.88
2023-05-03T06:29:01.031Z,9.88
2023-05-03T06:29:34.576Z,9.84
2023-05-03T06:30:08.685Z,9.84
2023-05-03T06:30:42.153Z,9.83
2023-05-03T06:31:19.071Z,9.82
2023-05-03T06:31:53.251Z,9.83
2023-05-03T06:32:26.601Z,9.89
2023-05-03T06:33:00.048Z,9.84
2023-05-03T06:33:34.529Z,9.86
2023-05-03T06:34:10.264Z,9.84
2023-05-03T06:34:45.162Z,9.84
2023-05-03T06:35:19.807Z,9.86
2023-05-03T06:35:53.981Z,9.86
2023-05-03T06:36:27.938Z,9.85
2023-05-03T06:37:01.209Z,9.86
2023-05-03T06:37:34.606Z,9.90
2023-05-03T06:38:09.105Z,9.92
2023-05-03T06:38:44.137Z,9.94
2023-05-03T06:39:18.350Z,9.98
2023-05-03T06:39:52.199Z,10.02
2023-05-03T06:40:27.370Z,10.02
2023-05-03T06:41:00.968Z,10.01
2023-05-03T06:41:34.311Z,10.00
2023-05-03T06:42:08.118Z,10.00
2023-05-03T06:42:44.650Z,10.02
2023-05-03T06:43:21.636Z,10.00
2023-05-03T06:44:08.598Z,10.01
2023-05-03T06:44:43.182Z,10.04
2023-05-03T06:45:16.665Z,10.06
2023-05-03T06:45:53.431Z,10.07
2023-05-03T06:46:28.570Z,10.07
2023-05-03T06:47:03.368Z,10.08
2023-05-03T06:47:37.662Z,10.07
2023-05-03T06:48:11.271Z,10.09
2023-05-03T06:48:44.870Z,10.10
2023-05-03T06:49:18.551Z,10.11
2023-05-03T06:49:52.508Z,10.11
2023-05-03T06:50:28.029Z,10.13
2023-05-03T06:51:01.477Z,10.14
2023-05-03T06:51:34.954Z,10.15
2023-05-03T06:52:10.920Z,10.15
2023-05-03T06:52:45.032Z,10.16
2023-05-03T06:53:18.259Z,10.18
2023-05-03T06:53:51.661Z,10.21
2023-05-03T06:54:24.963Z,10.24
2023-05-03T06:54:58.346Z,10.23
2023-05-03T06:55:33.250Z,10.22
2023-05-03T06:56:06.923Z,10.23
2023-05-03T06:56:40.188Z,10.22
2023-05-03T06:57:16.178Z,10.24
2023-05-03T06:57:49.515Z,10.24
2023-05-03T06:58:23.000Z,10.27
2023-05-03T06:58:56.521Z,10.30
2023-05-03T06:59:29.918Z,10.29
2023-05-03T07:00:07.532Z,10.30
2023-05-03T07:00:41.304Z,10.30
2023-05-03T07:01:14.669Z,10.29
2023-05-03T07:01:48.245Z,10.28
2023-05-03T07:02:21.996Z,10.28
2023-05-03T07:02:55.619Z,10.30
2023-05-03T07:03:29.157Z,10.33
2023-05-03T07:04:02.674Z,10.34
2023-05-03T07:04:37.979Z,10.36
2023-05-03T07:05:11.325Z,10.37
2023-05-03T07:05:44.668Z,10.38
2023-05-03T07:06:18.595Z,10.42
2023-05-03T07:06:56.445Z,10.42
2023-05-03T07:07:31.135Z,10.43
2023-05-03T07:08:04.709Z,10.44
2023-05-03T07:08:37.934Z,10.41
2023-05-03T07:09:11.362Z,10.43
2023-05-03T07:09:44.563Z,10.44
2023-05-03T07:10:18.100Z,10.42
2023-05-03T07:10:51.417Z,10.43
2023-05-03T07:11:24.688Z,10.45
2023-05-03T07:11:58.031Z,10.46
2023-05-03T07:12:32.128Z,10.48
2023-05-03T07:13:05.555Z,10.46
2023-05-03T07:13:38.779Z,10.46
2023-05-03T07:14:12.010Z,10.46
2023-05-03T07:14:45.485Z,10.47
2023-05-03T07:15:18.738Z,10.48
2023-05-03T07:15:52.060Z,10.48
2023-05-03T07:16:25.819Z,10.49
2023-05-03T07:16:59.313Z,10.52
2023-05-03T07:17:32.538Z,10.53
2023-05-03T07:18:09.390Z,10.54
2023-05-03T07:18:42.699Z,10.55
2023-05-03T07:19:16.059Z,10.56
2023-05-03T07:19:53.094Z,10.57
2023-05-03T07:20:26.601Z,10.60
2023-05-03T07:21:02.000Z,10.64
2023-05-03T07:21:35.865Z,10.63
2023-05-03T07:22:09.137Z,10.62
2023-05-03T07:22:42.412Z,10.62
2023-05-03T07:23:15.974Z,10.61
2023-05-03T07:23:49.326Z,10.66
2023-05-03T07:24:25.099Z,10.66
2023-05-03T07:24:59.939Z,10.68
2023-05-03T07:25:34.102Z,10.69
2023-05-03T07:26:08.204Z,10.72
2023-05-03T07:26:43.668Z,10.73
2023-05-03T07:27:17.684Z,10.75
2023-05-03T07:27:51.202Z,10.75
2023-05-03T07:28:24.445Z,10.80
2023-05-03T07:28:57.860Z,10.80
2023-05-03T07:29:31.278Z,10.81
2023-05-03T07:30:05.929Z,10.82
2023-05-03T07:30:39.484Z,10.87
2023-05-03T07:31:12.955Z,10.87
2023-05-03T07:31:46.893Z,10.88
2023-05-03T07:32:20.364Z,10.93
2023-05-03T07:32:53.830Z,10.93
2023-05-03T07:33:27.445Z,10.92
2023-05-03T07:34:00.776Z,10.93
2023-05-03T07:34:34.237Z,10.97
2023-05-03T07:35:08.102Z,10.98
2023-05-03T07:35:41.515Z,10.99
2023-05-03T07:36:15.082Z,10.98
2023-05-03T07:36:48.555Z,11.02
2023-05-03T07:37:22.066Z,11.03